sensor_id;sensor_type;location;lat;lon;timestamp;temperature;humidity
14370;DHT22;7268;50.792;0.252;2024-03-23T00:53:52;5.50;99.90
14370;DHT22;7268;50.792;0.252;2024-03-23T00:56:17;5.50;99.90
14370;DHT22;7268;50.792;0.252;2024-03-23T00:58:43;5.60;99.90
14370;DHT22;7268;50.792;0.252;2024-03-23T01:01:09;5.50;99.90
14370;DHT22;7268;50.792;0.252;2024-03-23T01:03:35;5.50;99.90
14370;DHT22;7268;50.792;0.252;2024-03-23T01:06:02;5.70;99.90
14370;DHT22;7268;50.792;0.252;2024-03-23T01:08:29;5.60;99.90
14370;DHT22;7268;50.792;0.252;2024-03-23T01:10:59;5.70;99.90
14370;DHT22;7268;50.792;0.252;2024-03-23T01:13:26;5.70;99.90
14370;DHT22;7268;50.792;0.252;2024-03-23T01:15:53;5.70;99.90
14370;DHT22;7268;50.792;0.252;2024-03-23T01:18:20;5.70;99.90
14370;DHT22;7268;50.792;0.252;2024-03-23T01:20:46;5.80;99.90
14370;DHT22;7268;50.792;0.252;2024-03-23T01:23:12;5.70;99.90
14370;DHT22;7268;50.792;0.252;2024-03-23T01:25:39;5.70;99.90
14370;DHT22;7268;50.792;0.252;2024-03-23T01:28:05;5.60;99.90
14370;DHT22;7268;50.792;0.252;2024-03-23T01:30:34;5.70;99.90
14370;DHT22;7268;50.792;0.252;2024-03-23T01:33:01;5.60;99.90
14370;DHT22;7268;50.792;0.252;2024-03-23T01:35:29;5.70;99.90
14370;DHT22;7268;50.792;0.252;2024-03-23T01:37:54;5.70;99.90
14370;DHT22;7268;50.792;0.252;2024-03-23T01:40:20;5.70;99.90
14370;DHT22;7268;50.792;0.252;2024-03-23T01:42:56;5.70;99.90
14370;DHT22;7268;50.792;0.252;2024-03-23T01:45:23;5.80;99.90
14370;DHT22;7268;50.792;0.252;2024-03-23T01:47:50;5.80;99.90
14370;DHT22;7268;50.792;0.252;2024-03-23T01:50:17;5.80;99.90
14370;DHT22;7268;50.792;0.252;2024-03-23T01:52:43;5.90;99.90
14370;DHT22;7268;50.792;0.252;2024-03-23T01:55:08;5.80;99.90
14370;DHT22;7268;50.792;0.252;2024-03-23T01:57:34;5.70;99.90
14370;DHT22;7268;50.792;0.252;2024-03-23T02:00:00;5.80;99.90
14370;DHT22;7268;50.792;0.252;2024-03-23T02:02:26;5.70;99.90
14370;DHT22;7268;50.792;0.252;2024-03-23T02:04:52;5.70;99.90
14370;DHT22;7268;50.792;0.252;2024-03-23T02:07:18;5.70;99.90
14370;DHT22;7268;50.792;0.252;2024-03-23T02:09:44;5.80;99.90
14370;DHT22;7268;50.792;0.252;2024-03-23T02:12:10;5.80;99.90
14370;DHT22;7268;50.792;0.252;2024-03-23T02:14:36;5.80;99.90
14370;DHT22;7268;50.792;0.252;2024-03-23T02:17:02;5.80;99.90
14370;DHT22;7268;50.792;0.252;2024-03-23T02:19:28;5.70;99.90
14370;DHT22;7268;50.792;0.252;2024-03-23T02:21:54;5.70;99.90
14370;DHT22;7268;50.792;0.252;2024-03-23T02:24:19;5.70;99.90
14370;DHT22;7268;50.792;0.252;2024-03-23T02:26:45;5.60;99.90
14370;DHT22;7268;50.792;0.252;2024-03-23T02:29:14;5.60;99.90
14370;DHT22;7268;50.792;0.252;2024-03-23T02:31:40;5.60;99.90
14370;DHT22;7268;50.792;0.252;2024-03-23T02:34:06;5.50;99.90
14370;DHT22;7268;50.792;0.252;2024-03-23T02:36:32;5.50;99.90
14370;DHT22;7268;50.792;0.252;2024-03-23T02:38:58;5.40;99.90
14370;DHT22;7268;50.792;0.252;2024-03-23T02:41:24;5.30;99.90
14370;DHT22;7268;50.792;0.252;2024-03-23T02:43:50;5.30;99.90
14370;DHT22;7268;50.792;0.252;2024-03-23T02:46:16;5.30;99.90
14370;DHT22;7268;50.792;0.252;2024-03-23T02:48:42;5.30;99.90
14370;DHT22;7268;50.792;0.252;2024-03-23T02:51:08;5.20;99.90
14370;DHT22;7268;50.792;0.252;2024-03-23T02:53:34;5.20;99.90
14370;DHT22;7268;50.792;0.252;2024-03-23T02:56:00;5.10;99.90
14370;DHT22;7268;50.792;0.252;2024-03-23T02:58:26;5.10;99.90
14370;DHT22;7268;50.792;0.252;2024-03-23T03:00:52;5.10;99.90
14370;DHT22;7268;50.792;0.252;2024-03-23T03:03:18;5.00;99.90
14370;DHT22;7268;50.792;0.252;2024-03-23T03:05:44;5.00;99.90
14370;DHT22;7268;50.792;0.252;2024-03-23T03:08:10;4.90;99.90
14370;DHT22;7268;50.792;0.252;2024-03-23T03:10:36;4.80;99.90
14370;DHT22;7268;50.792;0.252;2024-03-23T03:13:02;4.80;99.90
14370;DHT22;7268;50.792;0.252;2024-03-23T03:15:28;4.70;99.90
14370;DHT22;7268;50.792;0.252;2024-03-23T03:17:54;4.70;99.90
14370;DHT22;7268;50.792;0.252;2024-03-23T03:20:20;4.70;99.90
14370;DHT22;7268;50.792;0.252;2024-03-23T03:22:47;4.70;99.90
14370;DHT22;7268;50.792;0.252;2024-03-23T03:25:13;4.70;99.90
14370;DHT22;7268;50.792;0.252;2024-03-23T03:27:39;4.70;99.90
14370;DHT22;7268;50.792;0.252;2024-03-23T03:30:05;4.80;99.90
14370;DHT22;7268;50.792;0.252;2024-03-23T03:32:33;4.70;99.90
14370;DHT22;7268;50.792;0.252;2024-03-23T03:34:59;4.60;99.90
14370;DHT22;7268;50.792;0.252;2024-03-23T03:37:25;4.60;99.90
14370;DHT22;7268;50.792;0.252;2024-03-23T03:39:51;4.50;99.90
14370;DHT22;7268;50.792;0.252;2024-03-23T03:42:17;4.60;99.90
14370;DHT22;7268;50.792;0.252;2024-03-23T03:44:43;4.50;99.90
14370;DHT22;7268;50.792;0.252;2024-03-23T03:47:08;4.50;99.90
14370;DHT22;7268;50.792;0.252;2024-03-23T03:49:34;4.50;99.90
14370;DHT22;7268;50.792;0.252;2024-03-23T03:52:01;4.50;99.90
14370;DHT22;7268;50.792;0.252;2024-03-23T03:54:27;4.50;99.90
14370;DHT22;7268;50.792;0.252;2024-03-23T03:56:53;4.50;99.90
14370;DHT22;7268;50.792;0.252;2024-03-23T03:59:19;4.50;99.90
14370;DHT22;7268;50.792;0.252;2024-03-23T04:01:46;4.50;99.90
14370;DHT22;7268;50.792;0.252;2024-03-23T04:04:12;4.30;99.90
14370;DHT22;7268;50.792;0.252;2024-03-23T04:06:38;4.50;99.90
14370;DHT22;7268;50.792;0.252;2024-03-23T04:09:04;4.40;99.90
14370;DHT22;7268;50.792;0.252;2024-03-23T04:11:30;4.40;99.90
14370;DHT22;7268;50.792;0.252;2024-03-23T04:13:56;4.40;99.90
14370;DHT22;7268;50.792;0.252;2024-03-23T04:16:29;4.40;99.90
14370;DHT22;7268;50.792;0.252;2024-03-23T04:18:55;4.30;99.90
14370;DHT22;7268;50.792;0.252;2024-03-23T04:21:22;4.50;99.90
14370;DHT22;7268;50.792;0.252;2024-03-23T04:23:48;4.40;99.90
14370;DHT22;7268;50.792;0.252;2024-03-23T04:26:15;4.40;99.90
14370;DHT22;7268;50.792;0.252;2024-03-23T04:28:41;4.30;99.90
14370;DHT22;7268;50.792;0.252;2024-03-23T04:31:07;4.30;99.90
14370;DHT22;7268;50.792;0.252;2024-03-23T04:33:33;4.40;99.90
14370;DHT22;7268;50.792;0.252;2024-03-23T04:35:59;4.50;99.90
14370;DHT22;7268;50.792;0.252;2024-03-23T04:38:25;4.50;99.90
14370;DHT22;7268;50.792;0.252;2024-03-23T04:40:59;4.40;99.90
14370;DHT22;7268;50.792;0.252;2024-03-23T04:43:28;4.40;99.90
14370;DHT22;7268;50.792;0.252;2024-03-23T04:45:54;4.30;99.90
14370;DHT22;7268;50.792;0.252;2024-03-23T04:48:21;4.40;99.90
14370;DHT22;7268;50.792;0.252;2024-03-23T04:50:54;4.40;99.90
14370;DHT22;7268;50.792;0.252;2024-03-23T04:53:20;4.40;99.90
14370;DHT22;7268;50.792;0.252;2024-03-23T04:55:46;4.40;99.90
14370;DHT22;7268;50.792;0.252;2024-03-23T04:58:12;4.30;99.90
14370;DHT22;7268;50.792;0.252;2024-03-23T05:00:38;4.30;99.90
14370;DHT22;7268;50.792;0.252;2024-03-23T05:03:04;4.30;99.90
14370;DHT22;7268;50.792;0.252;2024-03-23T05:05:30;4.30;99.90
14370;DHT22;7268;50.792;0.252;2024-03-23T05:07:56;4.30;99.90
14370;DHT22;7268;50.792;0.252;2024-03-23T05:10:22;4.30;99.90
14370;DHT22;7268;50.792;0.252;2024-03-23T05:12:48;4.30;99.90
14370;DHT22;7268;50.792;0.252;2024-03-23T05:15:14;4.30;99.90
14370;DHT22;7268;50.792;0.252;2024-03-23T05:17:39;4.20;99.90
14370;DHT22;7268;50.792;0.252;2024-03-23T05:20:06;4.20;99.90
14370;DHT22;7268;50.792;0.252;2024-03-23T05:22:38;4.20;99.90
14370;DHT22;7268;50.792;0.252;2024-03-23T05:25:04;4.10;99.90
14370;DHT22;7268;50.792;0.252;2024-03-23T05:27:34;4.10;99.90
14370;DHT22;7268;50.792;0.252;2024-03-23T05:29:59;4.00;99.90
14370;DHT22;7268;50.792;0.252;2024-03-23T05:32:25;4.10;99.90
14370;DHT22;7268;50.792;0.252;2024-03-23T05:34:51;4.10;99.90
14370;DHT22;7268;50.792;0.252;2024-03-23T05:37:22;4.10;99.90
14370;DHT22;7268;50.792;0.252;2024-03-23T05:39:48;4.00;99.90
14370;DHT22;7268;50.792;0.252;2024-03-23T05:42:18;4.00;99.90
14370;DHT22;7268;50.792;0.252;2024-03-23T05:44:47;4.10;99.90
14370;DHT22;7268;50.792;0.252;2024-03-23T05:47:13;4.10;99.90
14370;DHT22;7268;50.792;0.252;2024-03-23T05:49:40;4.10;99.90
14370;DHT22;7268;50.792;0.252;2024-03-23T05:52:08;4.10;99.90
14370;DHT22;7268;50.792;0.252;2024-03-23T05:54:35;4.00;99.90
14370;DHT22;7268;50.792;0.252;2024-03-23T05:57:01;4.00;99.90
14370;DHT22;7268;50.792;0.252;2024-03-23T05:59:27;4.10;99.90
14370;DHT22;7268;50.792;0.252;2024-03-23T06:01:53;4.00;99.90
14370;DHT22;7268;50.792;0.252;2024-03-23T06:04:19;4.00;99.90
14370;DHT22;7268;50.792;0.252;2024-03-23T06:06:45;4.00;99.90
14370;DHT22;7268;50.792;0.252;2024-03-23T06:09:11;4.00;99.90
14370;DHT22;7268;50.792;0.252;2024-03-23T06:11:37;4.10;99.90
14370;DHT22;7268;50.792;0.252;2024-03-23T06:14:04;4.10;99.90
14370;DHT22;7268;50.792;0.252;2024-03-23T06:16:29;4.20;99.90
14370;DHT22;7268;50.792;0.252;2024-03-23T06:18:56;4.40;99.90
14370;DHT22;7268;50.792;0.252;2024-03-23T06:21:22;4.80;99.90
14370;DHT22;7268;50.792;0.252;2024-03-23T06:23:52;5.20;99.90
14370;DHT22;7268;50.792;0.252;2024-03-23T06:26:19;5.60;99.90
14370;DHT22;7268;50.792;0.252;2024-03-23T06:28:45;6.00;99.90
14370;DHT22;7268;50.792;0.252;2024-03-23T06:31:11;6.40;99.90
14370;DHT22;7268;50.792;0.252;2024-03-23T06:33:38;6.70;99.90
14370;DHT22;7268;50.792;0.252;2024-03-23T06:36:05;7.00;99.90
14370;DHT22;7268;50.792;0.252;2024-03-23T06:38:31;7.20;99.90
14370;DHT22;7268;50.792;0.252;2024-03-23T06:40:57;7.70;99.90
14370;DHT22;7268;50.792;0.252;2024-03-23T06:43:23;8.10;99.90
14370;DHT22;7268;50.792;0.252;2024-03-23T06:45:56;8.80;99.90
14370;DHT22;7268;50.792;0.252;2024-03-23T06:48:22;9.50;99.90
14370;DHT22;7268;50.792;0.252;2024-03-23T06:50:48;9.70;99.90
14370;DHT22;7268;50.792;0.252;2024-03-23T06:53:15;10.10;99.90
14370;DHT22;7268;50.792;0.252;2024-03-23T06:55:41;10.60;99.90
14370;DHT22;7268;50.792;0.252;2024-03-23T06:58:08;10.70;99.90
14370;DHT22;7268;50.792;0.252;2024-03-23T07:00:34;11.10;99.90
14370;DHT22;7268;50.792;0.252;2024-03-23T07:03:00;11.10;99.90
14370;DHT22;7268;50.792;0.252;2024-03-23T07:05:26;11.50;99.90
14370;DHT22;7268;50.792;0.252;2024-03-23T07:07:52;11.50;99.90
14370;DHT22;7268;50.792;0.252;2024-03-23T07:10:18;11.40;99.90
14370;DHT22;7268;50.792;0.252;2024-03-23T07:12:44;11.50;99.90
14370;DHT22;7268;50.792;0.252;2024-03-23T07:15:10;11.60;99.90
14370;DHT22;7268;50.792;0.252;2024-03-23T07:17:36;11.50;99.90
14370;DHT22;7268;50.792;0.252;2024-03-23T07:20:02;11.80;99.90
14370;DHT22;7268;50.792;0.252;2024-03-23T07:22:36;12.00;99.90
14370;DHT22;7268;50.792;0.252;2024-03-23T07:25:02;12.20;99.90
14370;DHT22;7268;50.792;0.252;2024-03-23T07:27:29;12.20;99.90
14370;DHT22;7268;50.792;0.252;2024-03-23T07:29:54;12.20;99.90
14370;DHT22;7268;50.792;0.252;2024-03-23T07:32:20;12.50;99.90
14370;DHT22;7268;50.792;0.252;2024-03-23T07:34:46;12.80;99.90
14370;DHT22;7268;50.792;0.252;2024-03-23T07:37:12;12.80;99.90
14370;DHT22;7268;50.792;0.252;2024-03-23T07:39:41;13.20;99.30
14370;DHT22;7268;50.792;0.252;2024-03-23T07:42:07;13.90;97.90
14370;DHT22;7268;50.792;0.252;2024-03-23T07:44:33;13.30;98.20
14370;DHT22;7268;50.792;0.252;2024-03-23T07:47:00;13.20;97.90
14370;DHT22;7268;50.792;0.252;2024-03-23T07:49:26;12.90;98.70
14370;DHT22;7268;50.792;0.252;2024-03-23T07:51:52;13.00;99.90
14370;DHT22;7268;50.792;0.252;2024-03-23T07:54:18;13.60;99.00
14370;DHT22;7268;50.792;0.252;2024-03-23T07:56:44;13.80;97.20
14370;DHT22;7268;50.792;0.252;2024-03-23T07:59:10;14.00;96.00
14370;DHT22;7268;50.792;0.252;2024-03-23T08:01:37;14.30;97.50
14370;DHT22;7268;50.792;0.252;2024-03-23T08:04:03;14.90;94.90
14370;DHT22;7268;50.792;0.252;2024-03-23T08:06:29;15.60;93.60
14370;DHT22;7268;50.792;0.252;2024-03-23T08:08:55;15.70;92.70
14370;DHT22;7268;50.792;0.252;2024-03-23T08:11:29;16.10;91.20
14370;DHT22;7268;50.792;0.252;2024-03-23T08:13:55;16.30;92.20
14370;DHT22;7268;50.792;0.252;2024-03-23T08:16:22;16.30;88.20
14370;DHT22;7268;50.792;0.252;2024-03-23T08:18:48;16.30;90.80
14370;DHT22;7268;50.792;0.252;2024-03-23T08:21:14;15.90;91.60
14370;DHT22;7268;50.792;0.252;2024-03-23T08:23:40;16.30;91.70
14370;DHT22;7268;50.792;0.252;2024-03-23T08:26:11;16.20;90.50
14370;DHT22;7268;50.792;0.252;2024-03-23T08:28:38;15.50;91.50
14370;DHT22;7268;50.792;0.252;2024-03-23T08:31:06;15.00;92.90
14370;DHT22;7268;50.792;0.252;2024-03-23T08:33:32;15.10;92.70
14370;DHT22;7268;50.792;0.252;2024-03-23T08:38:28;15.00;92.70
14370;DHT22;7268;50.792;0.252;2024-03-23T08:41:08;15.00;93.60
14370;DHT22;7268;50.792;0.252;2024-03-23T08:43:41;15.40;91.30
14370;DHT22;7268;50.792;0.252;2024-03-23T08:46:12;16.10;90.60
14370;DHT22;7268;50.792;0.252;2024-03-23T08:48:46;15.90;89.80
14370;DHT22;7268;50.792;0.252;2024-03-23T08:51:16;16.60;89.60
14370;DHT22;7268;50.792;0.252;2024-03-23T08:53:42;17.20;84.30
14370;DHT22;7268;50.792;0.252;2024-03-23T08:56:09;17.20;85.30
14370;DHT22;7268;50.792;0.252;2024-03-23T08:58:36;17.50;87.60
14370;DHT22;7268;50.792;0.252;2024-03-23T09:01:10;17.10;87.10
14370;DHT22;7268;50.792;0.252;2024-03-23T09:03:36;15.80;90.40
14370;DHT22;7268;50.792;0.252;2024-03-23T09:06:10;15.40;91.60
14370;DHT22;7268;50.792;0.252;2024-03-23T09:08:37;15.10;91.90
14370;DHT22;7268;50.792;0.252;2024-03-23T09:11:11;15.70;91.90
14370;DHT22;7268;50.792;0.252;2024-03-23T09:13:38;16.80;88.90
14370;DHT22;7268;50.792;0.252;2024-03-23T09:16:05;16.80;89.10
14370;DHT22;7268;50.792;0.252;2024-03-23T09:18:35;16.70;89.50
14370;DHT22;7268;50.792;0.252;2024-03-23T09:21:02;16.70;86.90
14370;DHT22;7268;50.792;0.252;2024-03-23T09:23:28;16.90;86.40
14370;DHT22;7268;50.792;0.252;2024-03-23T09:25:54;17.60;86.40
14370;DHT22;7268;50.792;0.252;2024-03-23T09:28:20;17.60;86.20
14370;DHT22;7268;50.792;0.252;2024-03-23T09:30:46;18.50;80.80
14370;DHT22;7268;50.792;0.252;2024-03-23T09:33:12;17.80;78.90
14370;DHT22;7268;50.792;0.252;2024-03-23T09:35:43;17.60;83.10
14370;DHT22;7268;50.792;0.252;2024-03-23T09:38:10;17.80;81.40
14370;DHT22;7268;50.792;0.252;2024-03-23T09:40:42;18.10;82.10
14370;DHT22;7268;50.792;0.252;2024-03-23T09:43:09;18.50;78.90
14370;DHT22;7268;50.792;0.252;2024-03-23T09:45:38;18.00;80.40
14370;DHT22;7268;50.792;0.252;2024-03-23T09:48:06;17.70;82.20
14370;DHT22;7268;50.792;0.252;2024-03-23T09:50:32;17.40;80.70
14370;DHT22;7268;50.792;0.252;2024-03-23T09:52:58;15.90;85.50
14370;DHT22;7268;50.792;0.252;2024-03-23T09:55:24;15.00;91.20
14370;DHT22;7268;50.792;0.252;2024-03-23T09:57:50;14.10;92.20
14370;DHT22;7268;50.792;0.252;2024-03-23T10:00:16;13.60;96.00
14370;DHT22;7268;50.792;0.252;2024-03-23T10:02:42;14.40;94.00
14370;DHT22;7268;50.792;0.252;2024-03-23T10:05:22;14.40;93.60
14370;DHT22;7268;50.792;0.252;2024-03-23T10:07:52;14.50;94.00
14370;DHT22;7268;50.792;0.252;2024-03-23T10:10:18;15.10;92.60
14370;DHT22;7268;50.792;0.252;2024-03-23T10:12:46;15.10;92.60
14370;DHT22;7268;50.792;0.252;2024-03-23T10:15:25;14.50;93.00
14370;DHT22;7268;50.792;0.252;2024-03-23T10:17:51;13.80;94.90
14370;DHT22;7268;50.792;0.252;2024-03-23T10:20:19;13.70;94.90
14370;DHT22;7268;50.792;0.252;2024-03-23T10:22:46;14.60;93.70
14370;DHT22;7268;50.792;0.252;2024-03-23T10:25:12;15.40;91.20
14370;DHT22;7268;50.792;0.252;2024-03-23T10:27:39;16.30;90.80
14370;DHT22;7268;50.792;0.252;2024-03-23T10:30:10;16.40;91.40
14370;DHT22;7268;50.792;0.252;2024-03-23T10:32:37;16.60;86.50
14370;DHT22;7268;50.792;0.252;2024-03-23T10:35:21;16.70;86.80
14370;DHT22;7268;50.792;0.252;2024-03-23T10:37:48;15.70;85.10
14370;DHT22;7268;50.792;0.252;2024-03-23T10:40:15;15.20;90.90
14370;DHT22;7268;50.792;0.252;2024-03-23T10:42:41;16.60;90.00
14370;DHT22;7268;50.792;0.252;2024-03-23T10:45:08;16.50;87.90
14370;DHT22;7268;50.792;0.252;2024-03-23T10:47:37;16.10;88.90
14370;DHT22;7268;50.792;0.252;2024-03-23T10:50:04;16.40;87.50
14370;DHT22;7268;50.792;0.252;2024-03-23T10:52:34;16.80;87.70
14370;DHT22;7268;50.792;0.252;2024-03-23T10:55:04;16.60;84.70
14370;DHT22;7268;50.792;0.252;2024-03-23T10:57:42;16.10;89.20
14370;DHT22;7268;50.792;0.252;2024-03-23T11:00:10;16.40;89.60
14370;DHT22;7268;50.792;0.252;2024-03-23T11:02:37;16.10;88.50
14370;DHT22;7268;50.792;0.252;2024-03-23T11:07:52;16.60;86.20
14370;DHT22;7268;50.792;0.252;2024-03-23T11:10:31;16.80;85.90
14370;DHT22;7268;50.792;0.252;2024-03-23T11:13:21;15.30;91.50
14370;DHT22;7268;50.792;0.252;2024-03-23T11:15:47;14.50;92.40
14370;DHT22;7268;50.792;0.252;2024-03-23T11:18:20;13.30;95.80
14370;DHT22;7268;50.792;0.252;2024-03-23T11:20:46;12.30;98.30
14370;DHT22;7268;50.792;0.252;2024-03-23T11:23:28;12.60;98.90
14370;DHT22;7268;50.792;0.252;2024-03-23T11:25:54;14.70;95.30
14370;DHT22;7268;50.792;0.252;2024-03-23T11:28:20;16.00;92.50
14370;DHT22;7268;50.792;0.252;2024-03-23T11:30:47;16.00;90.40
14370;DHT22;7268;50.792;0.252;2024-03-23T11:33:14;14.10;93.60
14370;DHT22;7268;50.792;0.252;2024-03-23T11:35:41;12.80;97.70
14370;DHT22;7268;50.792;0.252;2024-03-23T11:40:34;12.00;99.90
14370;DHT22;7268;50.792;0.252;2024-03-23T11:43:11;11.60;99.90
14370;DHT22;7268;50.792;0.252;2024-03-23T11:45:38;11.90;99.90
14370;DHT22;7268;50.792;0.252;2024-03-23T11:48:12;13.50;98.80
14370;DHT22;7268;50.792;0.252;2024-03-23T11:50:42;14.50;96.80
14370;DHT22;7268;50.792;0.252;2024-03-23T11:58:10;15.60;93.40
14370;DHT22;7268;50.792;0.252;2024-03-23T12:00:36;15.90;92.10
14370;DHT22;7268;50.792;0.252;2024-03-23T12:03:03;15.30;92.80
14370;DHT22;7268;50.792;0.252;2024-03-23T12:05:30;15.10;92.80
14370;DHT22;7268;50.792;0.252;2024-03-23T12:10:49;13.00;97.50
14370;DHT22;7268;50.792;0.252;2024-03-23T12:13:22;12.50;99.70
14370;DHT22;7268;50.792;0.252;2024-03-23T12:15:50;12.00;99.90
14370;DHT22;7268;50.792;0.252;2024-03-23T12:18:17;12.00;99.90
14370;DHT22;7268;50.792;0.252;2024-03-23T12:20:43;12.30;99.90
14370;DHT22;7268;50.792;0.252;2024-03-23T12:23:11;12.60;99.90
14370;DHT22;7268;50.792;0.252;2024-03-23T12:25:40;12.10;99.90
14370;DHT22;7268;50.792;0.252;2024-03-23T12:28:07;11.70;99.90
14370;DHT22;7268;50.792;0.252;2024-03-23T12:30:39;11.50;99.90
14370;DHT22;7268;50.792;0.252;2024-03-23T12:33:05;11.40;99.90
14370;DHT22;7268;50.792;0.252;2024-03-23T12:35:31;11.20;99.90
14370;DHT22;7268;50.792;0.252;2024-03-23T12:37:58;11.20;99.90
14370;DHT22;7268;50.792;0.252;2024-03-23T12:40:24;11.20;99.90
14370;DHT22;7268;50.792;0.252;2024-03-23T12:42:49;11.30;99.90
14370;DHT22;7268;50.792;0.252;2024-03-23T12:45:15;11.20;99.90
14370;DHT22;7268;50.792;0.252;2024-03-23T12:47:42;10.90;99.90
14370;DHT22;7268;50.792;0.252;2024-03-23T12:50:08;10.90;99.90
14370;DHT22;7268;50.792;0.252;2024-03-23T12:52:36;10.60;99.90
14370;DHT22;7268;50.792;0.252;2024-03-23T12:55:02;10.30;99.90
14370;DHT22;7268;50.792;0.252;2024-03-23T12:57:29;10.20;99.90
14370;DHT22;7268;50.792;0.252;2024-03-23T12:59:55;9.80;99.90
14370;DHT22;7268;50.792;0.252;2024-03-23T13:02:22;9.90;99.90
14370;DHT22;7268;50.792;0.252;2024-03-23T13:04:52;10.30;99.90
14370;DHT22;7268;50.792;0.252;2024-03-23T13:07:20;10.90;99.90
14370;DHT22;7268;50.792;0.252;2024-03-23T13:09:46;11.00;99.90
14370;DHT22;7268;50.792;0.252;2024-03-23T13:12:12;10.40;99.90
14370;DHT22;7268;50.792;0.252;2024-03-23T13:14:41;10.10;99.90
14370;DHT22;7268;50.792;0.252;2024-03-23T13:17:08;9.80;99.90
14370;DHT22;7268;50.792;0.252;2024-03-23T13:19:34;9.00;99.90
14370;DHT22;7268;50.792;0.252;2024-03-23T13:22:00;8.60;99.90
14370;DHT22;7268;50.792;0.252;2024-03-23T13:24:27;8.50;99.90
14370;DHT22;7268;50.792;0.252;2024-03-23T13:26:55;8.70;99.90
14370;DHT22;7268;50.792;0.252;2024-03-23T13:29:21;9.10;99.90
14370;DHT22;7268;50.792;0.252;2024-03-23T13:31:51;9.50;99.90
14370;DHT22;7268;50.792;0.252;2024-03-23T13:34:18;9.70;99.90
14370;DHT22;7268;50.792;0.252;2024-03-23T13:36:45;9.70;99.90
14370;DHT22;7268;50.792;0.252;2024-03-23T13:39:11;9.50;99.90
14370;DHT22;7268;50.792;0.252;2024-03-23T13:44:05;10.10;99.90
14370;DHT22;7268;50.792;0.252;2024-03-23T13:46:31;10.10;99.90
14370;DHT22;7268;50.792;0.252;2024-03-23T13:48:56;10.00;99.90
14370;DHT22;7268;50.792;0.252;2024-03-23T13:51:26;9.80;99.90
14370;DHT22;7268;50.792;0.252;2024-03-23T13:53:55;10.00;99.90
14370;DHT22;7268;50.792;0.252;2024-03-23T13:56:23;9.90;99.90
14370;DHT22;7268;50.792;0.252;2024-03-23T13:58:48;9.80;99.90
14370;DHT22;7268;50.792;0.252;2024-03-23T14:01:16;9.70;99.90
14370;DHT22;7268;50.792;0.252;2024-03-23T14:03:45;9.60;99.90
14370;DHT22;7268;50.792;0.252;2024-03-23T14:06:11;9.50;99.90
14370;DHT22;7268;50.792;0.252;2024-03-23T14:08:37;9.60;99.90
14370;DHT22;7268;50.792;0.252;2024-03-23T14:11:08;9.80;99.90
14370;DHT22;7268;50.792;0.252;2024-03-23T14:13:37;9.90;99.90
14370;DHT22;7268;50.792;0.252;2024-03-23T14:16:04;10.00;99.90
14370;DHT22;7268;50.792;0.252;2024-03-23T14:18:30;10.30;99.90
14370;DHT22;7268;50.792;0.252;2024-03-23T14:21:00;10.60;99.90
14370;DHT22;7268;50.792;0.252;2024-03-23T14:23:27;10.60;99.90
14370;DHT22;7268;50.792;0.252;2024-03-23T14:25:59;10.70;99.90
14370;DHT22;7268;50.792;0.252;2024-03-23T14:28:25;10.60;99.90
14370;DHT22;7268;50.792;0.252;2024-03-23T14:30:52;10.40;99.90
14370;DHT22;7268;50.792;0.252;2024-03-23T14:33:20;10.30;99.90
14370;DHT22;7268;50.792;0.252;2024-03-23T14:35:54;10.30;99.90
14370;DHT22;7268;50.792;0.252;2024-03-23T14:38:21;10.10;99.90
14370;DHT22;7268;50.792;0.252;2024-03-23T14:40:47;9.90;99.90
14370;DHT22;7268;50.792;0.252;2024-03-23T14:43:13;9.80;99.90
14370;DHT22;7268;50.792;0.252;2024-03-23T14:46:08;10.00;99.90
14370;DHT22;7268;50.792;0.252;2024-03-23T14:48:34;10.40;99.90
14370;DHT22;7268;50.792;0.252;2024-03-23T14:51:01;10.70;99.90
14370;DHT22;7268;50.792;0.252;2024-03-23T14:53:27;10.70;99.90
14370;DHT22;7268;50.792;0.252;2024-03-23T14:55:56;10.60;99.90
14370;DHT22;7268;50.792;0.252;2024-03-23T14:58:22;10.70;99.90
14370;DHT22;7268;50.792;0.252;2024-03-23T15:00:50;10.60;99.90
14370;DHT22;7268;50.792;0.252;2024-03-23T15:03:17;10.60;99.90
14370;DHT22;7268;50.792;0.252;2024-03-23T15:05:52;10.80;99.90
14370;DHT22;7268;50.792;0.252;2024-03-23T15:08:18;10.70;99.90
14370;DHT22;7268;50.792;0.252;2024-03-23T15:10:44;10.40;99.90
14370;DHT22;7268;50.792;0.252;2024-03-23T15:13:10;9.50;99.90
14370;DHT22;7268;50.792;0.252;2024-03-23T15:15:42;8.10;99.90
14370;DHT22;7268;50.792;0.252;2024-03-23T15:18:17;7.10;99.90
14370;DHT22;7268;50.792;0.252;2024-03-23T15:21:01;6.60;99.90
14370;DHT22;7268;50.792;0.252;2024-03-23T15:23:37;6.20;99.90
14370;DHT22;7268;50.792;0.252;2024-03-23T15:26:04;5.90;99.90
14370;DHT22;7268;50.792;0.252;2024-03-23T15:28:31;5.70;99.90
14370;DHT22;7268;50.792;0.252;2024-03-23T15:31:08;5.70;99.90
14370;DHT22;7268;50.792;0.252;2024-03-23T15:33:37;5.80;99.90
14370;DHT22;7268;50.792;0.252;2024-03-23T15:36:05;5.90;99.90
14370;DHT22;7268;50.792;0.252;2024-03-23T15:38:31;6.00;99.90
14370;DHT22;7268;50.792;0.252;2024-03-23T15:40:58;6.20;99.90
14370;DHT22;7268;50.792;0.252;2024-03-23T15:43:24;6.40;99.90
14370;DHT22;7268;50.792;0.252;2024-03-23T15:45:57;6.70;99.90
14370;DHT22;7268;50.792;0.252;2024-03-23T15:48:27;6.90;99.90
14370;DHT22;7268;50.792;0.252;2024-03-23T15:50:54;6.90;99.90
14370;DHT22;7268;50.792;0.252;2024-03-23T15:53:21;7.00;99.90
14370;DHT22;7268;50.792;0.252;2024-03-23T15:56:00;7.00;99.90
14370;DHT22;7268;50.792;0.252;2024-03-23T15:58:28;6.90;99.90
14370;DHT22;7268;50.792;0.252;2024-03-23T16:00:58;6.90;99.90
14370;DHT22;7268;50.792;0.252;2024-03-23T16:03:25;6.90;99.90
14370;DHT22;7268;50.792;0.252;2024-03-23T16:05:54;7.00;99.90
14370;DHT22;7268;50.792;0.252;2024-03-23T16:08:20;6.90;99.90
14370;DHT22;7268;50.792;0.252;2024-03-23T16:10:46;7.00;99.90
14370;DHT22;7268;50.792;0.252;2024-03-23T16:13:12;7.20;99.90
14370;DHT22;7268;50.792;0.252;2024-03-23T16:15:38;7.40;99.90
14370;DHT22;7268;50.792;0.252;2024-03-23T16:18:05;7.60;99.90
14370;DHT22;7268;50.792;0.252;2024-03-23T16:20:31;7.60;99.90
14370;DHT22;7268;50.792;0.252;2024-03-23T16:23:03;7.70;99.90
14370;DHT22;7268;50.792;0.252;2024-03-23T16:25:29;7.60;99.90
14370;DHT22;7268;50.792;0.252;2024-03-23T16:27:56;7.50;99.90
14370;DHT22;7268;50.792;0.252;2024-03-23T16:30:22;7.50;99.90
14370;DHT22;7268;50.792;0.252;2024-03-23T16:32:48;7.50;99.90
14370;DHT22;7268;50.792;0.252;2024-03-23T16:35:14;7.50;99.90
14370;DHT22;7268;50.792;0.252;2024-03-23T16:37:40;7.40;99.90
14370;DHT22;7268;50.792;0.252;2024-03-23T16:40:07;7.30;99.90
14370;DHT22;7268;50.792;0.252;2024-03-23T16:42:35;7.30;99.90
14370;DHT22;7268;50.792;0.252;2024-03-23T16:45:02;7.20;99.90
14370;DHT22;7268;50.792;0.252;2024-03-23T16:47:29;7.20;99.90
14370;DHT22;7268;50.792;0.252;2024-03-23T16:49:55;7.10;99.90
14370;DHT22;7268;50.792;0.252;2024-03-23T16:52:20;7.10;99.90
14370;DHT22;7268;50.792;0.252;2024-03-23T16:54:46;7.10;99.90
14370;DHT22;7268;50.792;0.252;2024-03-23T16:57:14;7.00;99.90
14370;DHT22;7268;50.792;0.252;2024-03-23T16:59:39;7.00;99.90
14370;DHT22;7268;50.792;0.252;2024-03-23T17:02:06;7.00;99.90
14370;DHT22;7268;50.792;0.252;2024-03-23T17:04:32;7.00;99.90
14370;DHT22;7268;50.792;0.252;2024-03-23T17:06:57;7.10;99.90